createdAt,value
2019-05-03T00:01:38.785Z,94705.91
2019-05-03T00:04:04.887Z,94703.46
2019-05-03T00:06:32.105Z,94700.28
2019-05-03T00:08:58.274Z,94697.25
2019-05-03T00:11:24.295Z,94688.34
2019-05-03T00:13:52.446Z,94680.48
2019-05-03T00:16:22.842Z,94678.55
2019-05-03T00:18:48.988Z,94678.00
2019-05-03T00:21:15.082Z,94679.35
2019-05-03T00:23:41.799Z,94682.06
2019-05-03T00:26:08.051Z,94687.69
2019-05-03T00:28:34.151Z,94696.06
2019-05-03T00:31:01.977Z,94689.30
2019-05-03T00:33:28.173Z,94686.59
2019-05-03T00:36:12.958Z,94689.30
2019-05-03T00:38:39.110Z,94685.24
2019-05-03T00:41:05.221Z,94683.56
2019-05-03T00:43:31.801Z,94683.02
2019-05-03T00:45:57.890Z,94685.95
2019-05-03T00:48:23.896Z,94676.48
2019-05-03T00:50:51.794Z,94675.36
2019-05-03T00:53:18.014Z,94674.00
2019-05-03T00:55:43.927Z,94675.61
2019-05-03T00:58:11.654Z,94676.96
2019-05-03T01:00:38.055Z,94670.42
2019-05-03T01:03:04.162Z,94667.98
2019-05-03T01:05:30.207Z,94670.11
2019-05-03T01:07:56.317Z,94668.23
2019-05-03T01:10:22.707Z,94669.04
2019-05-03T01:12:48.966Z,94672.52
2019-05-03T01:15:29.361Z,94663.05
2019-05-03T01:17:55.668Z,94665.46
2019-05-03T01:20:22.532Z,94666.48
2019-05-03T01:22:48.672Z,94661.08
2019-05-03T01:25:14.802Z,94658.92
2019-05-03T01:27:42.743Z,94659.16
2019-05-03T01:30:09.481Z,94650.27
2019-05-03T01:32:35.496Z,94653.41
2019-05-03T01:35:03.198Z,94654.55
2019-05-03T01:37:29.610Z,94646.91
2019-05-03T01:39:55.656Z,94649.06
2019-05-03T01:42:22.609Z,94655.25
2019-05-03T01:44:48.694Z,94647.13
2019-05-03T01:47:16.739Z,94645.45
2019-05-03T01:49:44.555Z,94647.39
2019-05-03T01:52:15.359Z,94648.16
2019-05-03T01:54:42.686Z,94636.80
2019-05-03T01:57:08.909Z,94633.54
2019-05-03T01:59:34.812Z,94634.89
2019-05-03T02:02:07.392Z,94635.92
2019-05-03T02:04:44.169Z,94631.31
2019-05-03T02:07:11.763Z,94626.67
2019-05-03T02:09:37.814Z,94632.09
2019-05-03T02:12:04.032Z,94625.58
2019-05-03T02:14:31.751Z,94627.16
2019-05-03T02:16:57.868Z,94625.80
2019-05-03T02:19:23.975Z,94631.47
2019-05-03T02:21:49.990Z,94631.21
2019-05-03T02:24:16.521Z,94631.47
2019-05-03T02:26:42.663Z,94634.39
2019-05-03T02:29:08.726Z,94630.56
2019-05-03T02:31:34.737Z,94629.20
2019-05-03T02:34:03.258Z,94626.75
2019-05-03T02:36:28.777Z,94627.30
2019-05-03T02:38:54.695Z,94626.98
2019-05-03T02:41:22.745Z,94625.63
2019-05-03T02:43:50.605Z,94635.09
2019-05-03T02:46:27.253Z,94628.81
2019-05-03T02:48:55.811Z,94622.05
2019-05-03T02:51:21.987Z,94626.10
2019-05-03T02:53:47.989Z,94624.75
2019-05-03T02:56:21.945Z,94620.91
2019-05-03T02:58:41.945Z,94614.41
2019-05-03T03:01:08.276Z,94614.41
2019-05-03T03:03:36.335Z,94610.34
2019-05-03T03:06:06.699Z,94607.09
2019-05-03T03:08:33.400Z,94618.69
2019-05-03T03:11:06.032Z,94613.53
2019-05-03T03:13:36.863Z,94613.75
2019-05-03T03:16:07.569Z,94616.45
2019-05-03T03:18:36.435Z,94613.97
2019-05-03T03:21:05.838Z,94616.67
2019-05-03T03:23:35.479Z,94614.23
2019-05-03T03:26:02.696Z,94618.21
2019-05-03T03:28:32.440Z,94612.17
2019-05-03T03:31:28.228Z,94626.15
2019-05-03T03:33:59.292Z,94624.25
2019-05-03T03:36:40.768Z,94615.91
2019-05-03T03:38:55.389Z,94616.93
2019-05-03T03:41:21.247Z,94619.09
2019-05-03T03:43:49.663Z,94618.51
2019-05-03T03:46:17.562Z,94621.47
2019-05-03T03:48:46.074Z,94623.05
2019-05-03T03:51:15.524Z,94629.80
2019-05-03T03:53:46.469Z,94625.97
2019-05-03T03:56:15.974Z,94630.28
2019-05-03T03:58:42.442Z,94634.02
2019-05-03T04:01:09.133Z,94624.00
2019-05-03T04:03:36.175Z,94623.66
2019-05-03T04:06:02.570Z,94625.02
2019-05-03T04:08:29.568Z,94620.41
2019-05-03T04:10:56.026Z,94626.59
2019-05-03T04:13:25.534Z,94627.07
2019-05-03T04:16:02.370Z,94626.52
2019-05-03T04:18:30.383Z,94632.16
2019-05-03T04:20:56.603Z,94630.58
2019-05-03T04:23:22.817Z,94625.87
2019-05-03T04:25:49.029Z,94638.84
2019-05-03T04:28:16.270Z,94639.62
2019-05-03T04:30:42.487Z,94637.16
2019-05-03T04:33:08.590Z,94644.41
2019-05-03T04:35:36.349Z,94643.27
2019-05-03T04:38:05.320Z,94640.57
2019-05-03T04:40:30.826Z,94645.66
2019-05-03T04:42:56.981Z,94643.50
2019-05-03T04:45:25.277Z,94650.52
2019-05-03T04:47:51.113Z,94646.35
2019-05-03T04:50:17.229Z,94648.51
2019-05-03T04:52:46.037Z,94650.08
2019-05-03T04:55:11.139Z,94648.98
2019-05-03T04:57:45.019Z,94647.85
2019-05-03T05:00:11.561Z,94645.95
2019-05-03T05:02:37.467Z,94643.46
2019-05-03T05:05:06.145Z,94649.13
2019-05-03T05:07:34.859Z,94643.94
2019-05-03T05:10:00.420Z,94644.96
2019-05-03T05:12:26.491Z,94639.55
2019-05-03T05:14:52.590Z,94639.80
2019-05-03T05:17:20.501Z,94636.22
2019-05-03T05:19:48.554Z,94626.74
2019-05-03T05:22:25.123Z,94633.95
2019-05-03T05:24:51.559Z,94632.84
2019-05-03T05:27:22.335Z,94633.58
2019-05-03T05:29:48.383Z,94630.54
2019-05-03T05:32:14.550Z,94623.44
2019-05-03T05:34:40.785Z,94624.72
2019-05-03T05:37:06.905Z,94621.67
2019-05-03T05:39:33.038Z,94618.86
2019-05-03T05:41:59.082Z,94616.95
2019-05-03T05:44:25.219Z,94615.83
2019-05-03T05:46:54.303Z,94616.30
2019-05-03T05:49:39.076Z,94612.48
2019-05-03T05:52:05.062Z,94612.16
2019-05-03T05:54:30.969Z,94611.60
2019-05-03T05:57:01.642Z,94614.75
2019-05-03T05:59:45.353Z,94603.92
2019-05-03T06:02:11.695Z,94600.88
2019-05-03T06:04:37.813Z,94609.00
2019-05-03T06:07:11.694Z,94608.45
2019-05-03T06:09:39.499Z,94605.19
2019-05-03T06:12:07.565Z,94609.48
2019-05-03T06:14:35.462Z,94606.22
2019-05-03T06:17:06.332Z,94606.00
2019-05-03T06:19:34.585Z,94602.95
2019-05-03T06:22:09.022Z,94596.73
2019-05-03T06:24:36.996Z,94604.64
2019-05-03T06:27:05.169Z,94602.38
2019-05-03T06:29:31.307Z,94603.73
2019-05-03T06:32:07.974Z,94601.02
2019-05-03T06:34:35.455Z,94601.02
2019-05-03T06:37:09.229Z,94607.79
2019-05-03T06:39:45.242Z,94609.95
2019-05-03T06:42:16.040Z,94604.20
2019-05-03T06:44:39.211Z,94600.69
2019-05-03T06:47:06.722Z,94599.33
2019-05-03T06:49:34.553Z,94602.84
2019-05-03T06:52:00.859Z,94603.09
2019-05-03T06:54:29.965Z,94600.94
2019-05-03T06:56:55.503Z,94605.22
2019-05-03T06:59:25.005Z,94612.58
2019-05-03T07:01:55.944Z,94612.24
2019-05-03T07:04:42.163Z,94606.83
2019-05-03T07:07:10.196Z,94604.67
2019-05-03T07:09:40.943Z,94598.45
2019-05-03T07:12:06.881Z,94594.97
2019-05-03T07:14:34.876Z,94606.91
2019-05-03T07:17:00.998Z,94613.93
2019-05-03T07:19:27.138Z,94616.64
2019-05-03T07:21:54.610Z,94621.47
2019-05-03T07:24:20.683Z,94618.21
2019-05-03T07:26:46.595Z,94625.20
2019-05-03T07:29:12.710Z,94620.92
2019-05-03T07:31:38.924Z,94629.05
2019-05-03T07:34:05.285Z,94629.05
2019-05-03T07:36:31.234Z,94631.20
2019-05-03T07:38:57.261Z,94640.09
2019-05-03T07:41:26.521Z,94648.23
2019-05-03T07:43:51.276Z,94642.59
2019-05-03T07:46:17.395Z,94641.23
2019-05-03T07:48:45.540Z,94634.46
2019-05-03T07:51:11.477Z,94642.37
2019-05-03T07:53:37.587Z,94652.62
2019-05-03T07:56:05.605Z,94661.55
2019-05-03T07:58:34.596Z,94661.33
2019-05-03T08:01:07.070Z,94667.29
2019-05-03T08:03:30.703Z,94675.42
2019-05-03T08:05:57.129Z,94668.39
2019-05-03T08:08:25.196Z,94675.75
2019-05-03T08:10:51.632Z,94677.88
2019-05-03T08:13:20.354Z,94667.63
2019-05-03T08:15:46.957Z,94667.84
2019-05-03T08:18:15.389Z,94674.14
2019-05-03T08:20:41.840Z,94676.85
2019-05-03T08:23:23.664Z,94671.43
2019-05-03T08:25:39.359Z,94665.24
2019-05-03T08:28:05.707Z,94669.64
2019-05-03T08:30:38.195Z,94669.05
2019-05-03T08:33:24.880Z,94670.41
2019-05-03T08:35:55.473Z,94675.05
2019-05-03T08:38:22.971Z,94669.38
2019-05-03T08:40:49.402Z,94664.84
2019-05-03T08:43:15.722Z,94652.91
2019-05-03T08:45:41.843Z,94651.31
2019-05-03T08:48:08.083Z,94657.53
2019-05-03T08:50:34.729Z,94650.76
2019-05-03T08:53:00.930Z,94659.69
2019-05-03T08:55:27.048Z,94661.04
2019-05-03T08:57:55.149Z,94659.69
2019-05-03T09:00:24.827Z,94669.38
2019-05-03T09:02:51.109Z,94667.81
2019-05-03T09:05:18.568Z,94671.07
2019-05-03T09:07:44.868Z,94675.05
2019-05-03T09:10:18.825Z,94677.69
2019-05-03T09:13:04.113Z,94682.34
2019-05-03T09:15:31.214Z,94671.85
2019-05-03T09:17:57.119Z,94677.55
2019-05-03T09:20:24.988Z,94681.20
2019-05-03T09:22:51.140Z,94676.92
2019-05-03T09:25:17.067Z,94668.25
2019-05-03T09:27:44.675Z,94671.98
2019-05-03T09:30:11.587Z,94668.48
2019-05-03T09:32:37.724Z,94662.73
2019-05-03T09:35:05.582Z,94661.86
2019-05-03T09:37:31.775Z,94664.56
2019-05-03T09:39:57.906Z,94669.65
2019-05-03T09:42:24.784Z,94677.44
2019-05-03T09:44:52.537Z,94687.17
2019-05-03T09:47:18.647Z,94689.30
2019-05-03T09:49:45.391Z,94684.47
2019-05-03T09:52:11.574Z,94690.10
2019-05-03T09:54:39.486Z,94694.41
2019-05-03T09:57:05.936Z,94697.34
2019-05-03T09:59:31.878Z,94697.34
2019-05-03T10:01:58.582Z,94698.92
2019-05-03T10:04:25.541Z,94701.63
2019-05-03T10:06:51.726Z,94692.16
2019-05-03T10:09:17.935Z,94697.56
2019-05-03T10:11:45.925Z,94697.82
2019-05-03T10:14:15.739Z,94699.17
2019-05-03T10:17:00.216Z,94701.55
2019-05-03T10:19:37.144Z,94702.11
2019-05-03T10:21:54.836Z,94711.03
2019-05-03T10:24:20.975Z,94704.81
2019-05-03T10:26:47.013Z,94707.52
2019-05-03T10:29:15.131Z,94706.16
2019-05-03T10:31:44.876Z,94710.22
2019-05-03T10:34:11.103Z,94717.87
2019-05-03T10:36:37.137Z,94724.56
2019-05-03T10:39:04.947Z,94721.86
2019-05-03T10:41:30.974Z,94719.48
2019-05-03T10:43:57.090Z,94728.08
2019-05-03T10:46:25.068Z,94733.49
2019-05-03T10:48:51.149Z,94746.77
2019-05-03T10:51:17.253Z,94763.27
2019-05-03T10:53:47.842Z,94762.17
2019-05-03T10:56:22.763Z,94773.00
2019-05-03T10:58:49.527Z,94773.00
2019-05-03T11:01:17.567Z,94773.00
2019-05-03T11:03:45.172Z,94768.69
2019-05-03T11:06:11.391Z,94771.39
2019-05-03T11:08:37.404Z,94778.41
2019-05-03T11:11:05.779Z,94772.74
2019-05-03T11:13:31.501Z,94767.33
2019-05-03T11:15:57.490Z,94753.54
2019-05-03T11:18:25.282Z,94748.92
2019-05-03T11:20:51.452Z,94760.56
2019-05-03T11:23:17.459Z,94762.69
2019-05-03T11:25:45.223Z,94771.94
2019-05-03T11:28:13.421Z,94784.92
2019-05-03T11:30:51.940Z,94796.31
2019-05-03T11:33:09.297Z,94808.48
2019-05-03T11:35:39.868Z,94803.95
2019-05-03T11:38:15.088Z,94794.15
2019-05-03T11:40:41.171Z,94792.57
2019-05-03T11:43:07.281Z,94783.64
2019-05-03T11:45:35.364Z,94780.94
2019-05-03T11:48:01.309Z,94777.42
2019-05-03T11:50:27.441Z,94777.42
2019-05-03T11:52:55.370Z,94782.84
2019-05-03T11:55:21.259Z,94789.06
2019-05-03T11:57:47.258Z,94786.67
2019-05-03T12:00:15.567Z,94775.62
2019-05-03T12:02:49.379Z,94777.20
2019-05-03T12:05:17.396Z,94769.62
2019-05-03T12:07:45.341Z,94767.73
2019-05-03T12:10:20.601Z,94777.75
2019-05-03T12:12:44.896Z,94776.98
2019-05-03T12:15:11.197Z,94771.31
2019-05-03T12:17:50.859Z,94760.95
2019-05-03T12:20:09.192Z,94752.29
2019-05-03T12:22:36.115Z,94746.07
2019-05-03T12:25:10.073Z,94737.15
2019-05-03T12:27:34.923Z,94742.56
2019-05-03T12:30:00.844Z,94745.27
2019-05-03T12:32:26.861Z,94741.79
2019-05-03T12:34:54.983Z,94740.66
2019-05-03T12:37:20.771Z,94736.59
2019-05-03T12:39:46.682Z,94732.76
2019-05-03T12:42:14.763Z,94727.34
2019-05-03T12:44:40.814Z,94726.25
2019-05-03T12:47:06.960Z,94723.28
2019-05-03T12:49:33.056Z,94725.99
2019-05-03T12:51:58.992Z,94736.27
2019-05-03T12:54:24.937Z,94732.20
2019-05-03T12:56:50.841Z,94734.04
2019-05-03T12:59:30.718Z,94741.36
2019-05-03T13:01:58.627Z,94742.71
2019-05-03T13:04:26.560Z,94741.36
2019-05-03T13:07:11.170Z,94737.30
2019-05-03T13:09:39.108Z,94738.42
2019-05-03T13:12:06.307Z,94739.53
2019-05-03T13:14:34.515Z,94739.20
2019-05-03T13:17:00.374Z,94734.37
2019-05-03T13:19:26.517Z,94736.82
2019-05-03T13:21:52.631Z,94739.53
2019-05-03T13:24:23.313Z,94735.14
2019-05-03T13:26:46.813Z,94740.81
2019-05-03T13:29:15.148Z,94732.20
2019-05-03T13:31:40.626Z,94733.78
2019-05-03T13:34:06.683Z,94734.04
2019-05-03T13:36:34.761Z,94732.69
2019-05-03T13:39:11.430Z,94732.39
2019-05-03T13:41:28.645Z,94727.50
2019-05-03T13:43:54.961Z,94740.51
2019-05-03T13:46:21.198Z,94731.26
2019-05-03T13:48:49.259Z,94727.78
2019-05-03T13:51:15.324Z,94725.84
2019-05-03T13:53:41.342Z,94721.23
2019-05-03T13:56:07.550Z,94719.08
2019-05-03T13:58:35.588Z,94716.63
2019-05-03T14:01:01.694Z,94709.85
2019-05-03T14:03:27.634Z,94711.76
2019-05-03T14:05:55.190Z,94707.70
2019-05-03T14:08:21.247Z,94703.08
2019-05-03T14:10:47.258Z,94705.80
2019-05-03T14:13:13.399Z,94704.44
2019-05-03T14:15:39.402Z,94705.46
2019-05-03T14:18:06.080Z,94706.27
2019-05-03T14:20:43.213Z,94699.50
2019-05-03T14:23:09.428Z,94706.49
2019-05-03T14:25:35.465Z,94708.97
2019-05-03T14:28:01.578Z,94703.78
2019-05-03T14:30:27.687Z,94703.78
2019-05-03T14:32:55.594Z,94699.72
2019-05-03T14:35:21.529Z,94709.53
2019-05-03T14:37:47.538Z,94709.53
2019-05-03T14:40:14.646Z,94708.17
2019-05-03T14:42:40.798Z,94707.84
2019-05-03T14:45:07.312Z,94709.20
2019-05-03T14:47:33.438Z,94701.41
2019-05-03T14:49:59.574Z,94704.91
2019-05-03T14:52:28.407Z,94705.46
2019-05-03T14:54:55.423Z,94707.84
2019-05-03T14:57:26.152Z,94708.97
2019-05-03T15:00:02.976Z,94708.97
2019-05-03T15:02:47.511Z,94708.97
2019-05-03T15:05:14.745Z,94714.39
2019-05-03T15:07:40.681Z,94710.08
2019-05-03T15:10:09.100Z,94716.63
2019-05-03T15:12:36.071Z,94719.33
2019-05-03T15:15:06.298Z,94719.33
2019-05-03T15:17:32.354Z,94726.91
2019-05-03T15:19:58.460Z,94729.61
2019-05-03T15:22:25.359Z,94732.87
2019-05-03T15:24:51.628Z,94732.31
2019-05-03T15:27:18.139Z,94740.98
2019-05-03T15:29:44.864Z,94746.41
2019-05-03T15:32:15.348Z,94746.41
2019-05-03T15:34:41.071Z,94754.52
2019-05-03T15:37:07.074Z,94746.41
2019-05-03T15:39:34.797Z,94751.81
2019-05-03T15:42:01.126Z,94750.21
2019-05-03T15:44:29.207Z,94743.44
2019-05-03T15:46:57.300Z,94763.75
2019-05-03T15:49:27.411Z,94773.22
2019-05-03T15:51:53.838Z,94777.86
2019-05-03T15:54:19.545Z,94779.77
2019-05-03T15:56:45.470Z,94786.53
2019-05-03T15:59:11.588Z,94788.69
2019-05-03T16:01:37.498Z,94785.98
2019-05-03T16:04:04.822Z,94783.83
2019-05-03T16:06:31.104Z,94782.77
2019-05-03T16:08:57.202Z,94781.41
2019-05-03T16:11:25.219Z,94787.93
2019-05-03T16:13:51.140Z,94797.66
2019-05-03T16:16:17.255Z,94797.50
2019-05-03T16:18:44.874Z,94808.01
2019-05-03T16:21:11.179Z,94820.73
2019-05-03T16:23:37.353Z,94823.22
2019-05-03T16:26:04.965Z,94827.28
2019-05-03T16:28:42.027Z,94826.48
2019-05-03T16:31:12.898Z,94835.41
2019-05-03T16:33:38.907Z,94826.80
2019-05-03T16:36:05.521Z,94836.83
2019-05-03T16:38:31.728Z,94837.63
2019-05-03T16:40:58.145Z,94837.63
2019-05-03T16:43:25.629Z,94843.92
2019-05-03T16:45:51.908Z,94846.88
2019-05-03T16:48:18.502Z,94844.17
2019-05-03T16:50:45.198Z,94843.92
2019-05-03T16:53:11.212Z,94839.86
2019-05-03T16:55:37.319Z,94829.36
2019-05-03T16:58:03.457Z,94832.87
2019-05-03T17:00:29.564Z,94840.98
2019-05-03T17:02:55.590Z,94843.70
2019-05-03T17:05:41.496Z,94837.80
2019-05-03T17:08:26.299Z,94844.83
2019-05-03T17:10:57.079Z,94845.70
2019-05-03T17:13:25.165Z,94851.11
2019-05-03T17:15:51.307Z,94855.17
2019-05-03T17:18:17.383Z,94854.36
2019-05-03T17:20:45.268Z,94859.78
2019-05-03T17:23:11.490Z,94862.27
2019-05-03T17:25:37.605Z,94864.39
2019-05-03T17:28:05.027Z,94865.74
2019-05-03T17:30:37.198Z,94866.00
2019-05-03T17:33:01.897Z,94860.59
2019-05-03T17:35:27.998Z,94853.81
2019-05-03T17:37:54.621Z,94864.06
2019-05-03T17:40:26.426Z,94867.34
2019-05-03T17:42:56.970Z,94870.83
2019-05-03T17:45:25.363Z,94876.24
2019-05-03T17:47:51.526Z,94876.83
2019-05-03T17:50:17.551Z,94881.66
2019-05-03T17:52:48.350Z,94881.66
2019-05-03T17:55:35.093Z,94881.91
2019-05-03T17:58:04.519Z,94882.47
2019-05-03T18:00:32.690Z,94886.52
2019-05-03T18:02:58.890Z,94895.19
2019-05-03T18:05:44.912Z,94895.77
2019-05-03T18:08:12.997Z,94899.58
2019-05-03T18:10:40.995Z,94901.19
2019-05-03T18:13:07.126Z,94900.93
2019-05-03T18:15:34.527Z,94912.56
2019-05-03T18:18:00.655Z,94918.52
2019-05-03T18:20:26.664Z,94923.94
2019-05-03T18:22:54.491Z,94930.96
2019-05-03T18:25:20.775Z,94927.45
2019-05-03T18:27:46.817Z,94938.59
2019-05-03T18:30:13.014Z,94938.59
2019-05-03T18:32:39.014Z,94941.53
2019-05-03T18:35:05.223Z,94942.11
2019-05-03T18:37:31.422Z,94943.46
2019-05-03T18:39:58.830Z,94941.30
2019-05-03T18:42:30.796Z,94949.17
2019-05-03T18:44:58.915Z,94951.33
2019-05-03T18:47:26.521Z,94953.23
2019-05-03T18:49:52.668Z,94953.48
2019-05-03T18:52:18.778Z,94955.39
2019-05-03T18:54:44.807Z,94962.96
2019-05-03T18:57:10.912Z,94965.66
2019-05-03T18:59:36.808Z,94967.83
2019-05-03T19:02:05.314Z,94970.53
2019-05-03T19:04:37.894Z,94978.66
2019-05-03T19:07:07.270Z,94973.78
2019-05-03T19:09:35.167Z,94970.27
2019-05-03T19:12:06.265Z,94982.72
2019-05-03T19:14:32.583Z,94985.16
2019-05-03T19:17:05.123Z,94982.72
2019-05-03T19:19:35.145Z,94985.97
2019-05-03T19:22:01.366Z,94985.97
2019-05-03T19:24:27.310Z,94989.22
2019-05-03T19:26:54.380Z,94988.41
2019-05-03T19:29:20.446Z,94984.36
2019-05-03T19:31:46.561Z,94989.22
2019-05-03T19:34:12.685Z,94983.58
2019-05-03T19:36:38.793Z,94980.30
2019-05-03T19:39:05.249Z,94980.88
2019-05-03T19:41:31.358Z,94983.58
2019-05-03T19:43:57.420Z,94990.89
2019-05-03T19:46:24.832Z,94994.95
2019-05-03T19:48:51.267Z,94994.15
2019-05-03T19:51:17.394Z,94994.73
2019-05-03T19:53:45.296Z,94996.31
2019-05-03T19:56:11.331Z,94993.37
2019-05-03T19:58:37.337Z,94986.34
2019-05-03T20:01:20.002Z,94987.16
2019-05-03T20:04:02.749Z,94986.61
2019-05-03T20:06:30.756Z,94990.73
2019-05-03T20:08:58.663Z,94989.63
2019-05-03T20:11:25.240Z,94991.53
2019-05-03T20:13:51.402Z,94994.79
2019-05-03T20:16:17.518Z,94997.50
2019-05-03T20:18:45.387Z,94993.69
2019-05-03T20:21:11.551Z,94989.15
2019-05-03T20:23:37.561Z,94987.48
2019-05-03T20:26:05.028Z,94988.83
2019-05-03T20:28:33.133Z,94981.80
2019-05-03T20:30:59.067Z,94983.73
2019-05-03T20:33:25.193Z,94984.28
2019-05-03T20:35:53.787Z,94981.58
2019-05-03T20:38:19.303Z,94980.45
2019-05-03T20:40:45.410Z,94979.09
2019-05-03T20:43:13.326Z,94976.65
2019-05-03T20:45:41.384Z,94977.74
2019-05-03T20:48:09.183Z,94977.74
2019-05-03T20:50:35.359Z,94980.22
2019-05-03T20:53:01.436Z,94987.22
2019-05-03T20:55:27.488Z,94991.28
2019-05-03T20:57:54.960Z,94988.57
2019-05-03T21:00:25.412Z,94983.73
2019-05-03T21:02:54.104Z,94984.77
2019-05-03T21:05:27.838Z,94977.74
2019-05-03T21:07:47.235Z,94983.96
2019-05-03T21:10:15.451Z,94982.06
2019-05-03T21:12:41.495Z,94980.16
2019-05-03T21:15:09.902Z,94980.45
2019-05-03T21:17:40.467Z,94985.58
2019-05-03T21:20:10.993Z,94990.18
2019-05-03T21:22:38.125Z,94988.83
2019-05-03T21:25:09.071Z,94985.00
2019-05-03T21:27:35.187Z,94995.05
2019-05-03T21:30:01.686Z,94995.05
2019-05-03T21:32:27.593Z,95001.49
2019-05-03T21:34:55.638Z,95003.94
2019-05-03T21:37:21.712Z,95007.69
2019-05-03T21:39:47.744Z,95004.20
2019-05-03T21:42:15.164Z,95007.69
2019-05-03T21:44:41.406Z,94997.44
2019-05-03T21:47:12.218Z,95007.94
2019-05-03T21:49:40.280Z,95006.01
2019-05-03T21:52:06.291Z,95007.36
2019-05-03T21:54:32.355Z,95020.90
2019-05-03T21:56:58.469Z,95016.84
2019-05-03T21:59:26.487Z,95017.91
2019-05-03T22:01:54.613Z,95011.91
2019-05-03T22:04:20.647Z,95018.67
2019-05-03T22:06:46.563Z,95019.80
2019-05-03T22:09:12.580Z,95013.27
2019-05-03T22:11:38.496Z,95011.91
2019-05-03T22:14:06.405Z,95010.81
2019-05-03T22:16:46.295Z,95011.05
2019-05-03T22:19:16.326Z,95011.85
2019-05-03T22:21:45.347Z,95003.47
2019-05-03T22:24:14.793Z,95008.34
2019-05-03T22:26:54.997Z,95009.95
2019-05-03T22:29:21.002Z,95004.53
2019-05-03T22:31:47.124Z,95011.85
2019-05-03T22:34:14.922Z,95008.83
2019-05-03T22:36:41.062Z,95021.00
2019-05-03T22:39:07.395Z,95011.53
2019-05-03T22:41:34.805Z,95003.41
2019-05-03T22:44:01.077Z,95010.41
2019-05-03T22:46:27.092Z,94995.28
2019-05-03T22:48:55.099Z,94998.48
2019-05-03T22:51:21.229Z,94995.77
2019-05-03T22:53:47.149Z,95006.83
2019-05-03T22:56:14.438Z,95002.77
2019-05-03T22:58:40.546Z,95000.06
2019-05-03T23:01:06.553Z,95001.67
2019-05-03T23:03:35.437Z,94997.84
2019-05-03T23:06:01.425Z,94995.13
2019-05-03T23:08:27.371Z,94993.70
2019-05-03T23:10:54.732Z,94987.88
2019-05-03T23:13:21.022Z,94984.63
2019-05-03T23:15:47.034Z,94977.31
2019-05-03T23:18:13.134Z,94981.83
2019-05-03T23:20:44.804Z,94981.27
2019-05-03T23:23:14.468Z,94980.14
2019-05-03T23:25:40.455Z,94979.59
2019-05-03T23:28:06.560Z,94980.63
2019-05-03T23:30:32.783Z,94970.64
2019-05-03T23:32:58.889Z,94970.64
2019-05-03T23:35:25.034Z,94962.74
2019-05-03T23:37:50.934Z,94958.69
2019-05-03T23:40:16.965Z,94958.13
2019-05-03T23:42:42.974Z,94947.30
2019-05-03T23:45:09.110Z,94956.45
2019-05-03T23:47:40.044Z,94945.08
2019-05-03T23:50:07.842Z,94947.47
2019-05-03T23:52:35.260Z,94942.28
2019-05-03T23:55:05.574Z,94939.34
2019-05-03T23:57:31.498Z,94946.92
2019-05-03T23:59:57.635Z,94953.91
